Time;durP1;ratioP1;P1;durP2;ratioP2;P2;SDS_P1;SDS_P2;PMS_P1;PMS_P2;Temp;Humidity;BMP_temperature;BMP_pressure;BME280_temperature;BME280_humidity;BME280_pressure;Samples;Min_cycle;Max_cycle;Signal;HPM_P1;HPM_P2
2023/03/13 00:01:03;;;;;;;6.37;2.07;;;10.50;49.10;;;;;;20637;6871;117704;-76
2023/03/13 00:03:28;;;;;;;5.97;2.70;;;10.30;49.30;;;;;;20589;6872;118728;-77
2023/03/13 00:05:54;;;;;;;5.63;2.70;;;10.20;49.50;;;;;;20428;6872;317669;-77
2023/03/13 00:08:19;;;;;;;6.32;3.10;;;10.40;49.90;;;;;;20405;6872;279237;-77
2023/03/13 00:10:46;;;;;;;3.70;2.67;;;10.70;49.00;;;;;;20641;6872;117576;-77
2023/03/13 00:13:11;;;;;;;6.63;3.00;;;10.70;49.00;;;;;;20430;6872;279235;-77
2023/03/13 00:15:37;;;;;;;6.82;3.15;;;10.90;49.00;;;;;;20413;6872;317722;-77
2023/03/13 00:18:03;;;;;;;6.97;3.25;;;11.10;48.50;;;;;;20432;6872;280454;-76
2023/03/13 00:20:28;;;;;;;8.05;3.33;;;11.40;48.00;;;;;;20427;6872;330907;-77
2023/03/13 00:22:54;;;;;;;5.67;2.50;;;11.50;47.60;;;;;;20635;6872;123949;-77
2023/03/13 00:25:21;;;;;;;4.70;2.97;;;11.40;47.70;;;;;;20642;6872;117760;-77
2023/03/13 00:27:46;;;;;;;6.00;2.40;;;11.10;48.10;;;;;;20611;6872;123858;-77
2023/03/13 00:30:13;;;;;;;5.40;2.37;;;10.60;48.90;;;;;;20640;6872;117653;-81
2023/03/13 00:32:42;;;;;;;6.40;3.27;;;10.60;48.90;;;;;;20633;6872;117617;-80
2023/03/13 00:35:07;;;;;;;4.67;2.80;;;10.40;49.10;;;;;;20609;6872;118108;-76
2023/03/13 00:37:33;;;;;;;6.37;2.83;;;10.20;49.20;;;;;;20629;6872;117559;-77
2023/03/13 00:39:58;;;;;;;6.93;3.20;;;10.10;49.40;;;;;;20442;6872;283027;-76
2023/03/13 00:42:24;;;;;;;7.00;3.20;;;10.40;49.90;;;;;;20643;6872;119142;-76
2023/03/13 00:44:49;;;;;;;5.57;2.87;;;10.40;49.50;;;;;;20424;6872;279548;-76
2023/03/13 00:47:15;;;;;;;6.73;3.30;;;10.60;49.50;;;;;;20425;6872;309723;-76
2023/03/13 00:49:41;;;;;;;6.43;3.15;;;10.90;49.10;;;;;;20374;6872;309296;-76
2023/03/13 00:52:06;;;;;;;6.50;2.70;;;11.20;48.60;;;;;;20662;6872;117661;-76
2023/03/13 00:54:32;;;;;;;7.70;3.40;;;11.10;48.40;;;;;;20430;6872;309302;-76
2023/03/13 00:56:57;;;;;;;5.97;2.90;;;11.20;48.40;;;;;;20644;6872;117771;-76
2023/03/13 00:59:23;;;;;;;3.70;2.20;;;11.10;48.40;;;;;;20643;6872;118060;-76
2023/03/13 01:01:48;;;;;;;5.23;2.60;;;10.80;48.70;;;;;;20626;6870;120363;-78
2023/03/13 01:04:14;;;;;;;4.93;2.27;;;10.60;48.90;;;;;;20637;6871;123837;-76
2023/03/13 01:06:41;;;;;;;4.77;2.30;;;10.50;49.30;;;;;;20625;6871;117551;-77
2023/03/13 01:09:06;;;;;;;5.95;2.42;;;10.30;49.40;;;;;;20407;6871;308731;-76
2023/03/13 01:11:35;;;;;;;5.10;2.20;;;10.50;49.50;;;;;;20601;6871;127188;-77
2023/03/13 01:14:00;;;;;;;5.93;2.60;;;10.60;49.20;;;;;;20388;6872;308438;-76
2023/03/13 01:16:26;;;;;;;5.68;2.92;;;10.80;49.00;;;;;;20418;6872;292459;-76
2023/03/13 01:18:52;;;;;;;6.50;2.80;;;11.10;48.50;;;;;;20414;6872;279746;-76
2023/03/13 01:21:21;;;;;;;4.93;2.65;;;11.40;48.00;;;;;;20417;6872;339245;-76
2023/03/13 01:23:47;;;;;;;5.73;2.80;;;11.60;47.50;;;;;;20393;6872;282688;-76
2023/03/13 01:26:12;;;;;;;6.10;2.70;;;11.80;47.20;;;;;;20637;6872;117619;-76
2023/03/13 01:28:38;;;;;;;5.63;2.67;;;11.60;47.20;;;;;;20420;6872;309523;-76
2023/03/13 01:31:20;;;;;;;4.57;2.37;;;11.60;47.40;;;;;;20631;6872;119231;-76
2023/03/13 01:33:45;;;;;;;6.10;2.20;;;11.40;47.50;;;;;;20614;6872;117593;-79
2023/03/13 01:36:11;;;;;;;5.85;2.60;;;11.10;47.80;;;;;;20404;6872;309945;-77
2023/03/13 01:38:36;;;;;;;7.37;2.50;;;11.20;48.20;;;;;;20623;6872;118226;-77
2023/03/13 01:41:03;;;;;;;4.77;2.17;;;11.10;48.10;;;;;;20416;6872;310412;-79
2023/03/13 01:43:29;;;;;;;5.13;2.40;;;11.20;48.30;;;;;;20614;6872;118194;-76
2023/03/13 01:46:17;;;;;;;3.17;1.80;;;11.10;48.10;;;;;;20622;6872;117620;-76
2023/03/13 01:49:02;;;;;;;6.37;2.55;;;11.00;48.50;;;;;;20430;6872;327217;-77
2023/03/13 01:51:47;;;;;;;6.40;2.00;;;11.00;48.50;;;;;;20607;6872;122640;-78
2023/03/13 01:54:13;;;;;;;5.03;2.28;;;11.00;48.40;;;;;;20410;6872;279140;-77
2023/03/13 01:56:58;;;;;;;3.87;1.87;;;11.10;48.60;;;;;;20616;6872;121315;-78
2023/03/13 01:59:26;;;;;;;4.23;2.03;;;11.10;48.50;;;;;;20395;6872;314622;-77
2023/03/13 02:01:52;;;;;;;5.47;2.07;;;11.20;48.50;;;;;;20604;6872;121374;-78
2023/03/13 02:04:19;;;;;;;4.67;2.17;;;11.20;48.40;;;;;;20621;6872;117929;-77
2023/03/13 02:06:45;;;;;;;4.87;2.10;;;10.90;48.60;;;;;;20417;6872;320027;-77
2023/03/13 02:09:13;;;;;;;3.37;1.83;;;11.00;49.00;;;;;;20632;6872;117563;-77
2023/03/13 02:11:52;;;;;;;2.73;1.77;;;11.00;48.80;;;;;;20585;6872;118396;-77
2023/03/13 02:14:18;;;;;;;6.05;2.12;;;10.90;49.00;;;;;;20412;6870;303401;-77
2023/03/13 02:16:46;;;;;;;4.22;1.75;;;11.00;49.30;;;;;;20420;6871;309611;-77
2023/03/13 02:19:29;;;;;;;3.70;2.00;;;11.30;49.10;;;;;;20420;6871;309717;-77
2023/03/13 02:21:54;;;;;;;5.80;1.80;;;11.60;48.70;;;;;;20626;6871;117572;-77
2023/03/13 02:24:36;;;;;;;4.32;1.90;;;11.40;48.40;;;;;;20612;6871;118388;-77
2023/03/13 02:27:02;;;;;;;2.73;1.30;;;11.20;48.80;;;;;;20266;6872;119900;-77
2023/03/13 02:29:27;;;;;;;3.20;1.47;;;10.90;49.10;;;;;;20619;6872;117650;-77
2023/03/13 02:31:53;;;;;;;2.30;1.53;;;10.80;49.40;;;;;;20638;6872;118114;-78
2023/03/13 02:34:19;;;;;;;2.27;1.30;;;10.90;50.40;;;;;;20399;6872;332997;-77
2023/03/13 02:36:45;;;;;;;2.87;1.33;;;10.80;50.30;;;;;;20633;6872;118193;-78
2023/03/13 02:39:10;;;;;;;3.67;1.70;;;10.90;50.00;;;;;;20426;6872;295918;-79
2023/03/13 02:41:36;;;;;;;2.07;1.50;;;11.10;50.10;;;;;;20400;6872;313020;-77
2023/03/13 02:44:02;;;;;;;1.87;1.10;;;11.50;49.50;;;;;;20637;6872;123753;-78
2023/03/13 02:46:28;;;;;;;2.73;1.37;;;11.50;49.50;;;;;;20640;6872;117595;-79
2023/03/13 02:48:53;;;;;;;2.00;1.37;;;11.30;49.60;;;;;;20429;6872;308968;-77
2023/03/13 02:51:28;;;;;;;4.23;1.63;;;11.40;50.00;;;;;;20423;6872;284694;-77
2023/03/13 02:53:54;;;;;;;2.10;1.40;;;11.70;49.70;;;;;;20616;6872;117685;-77
2023/03/13 02:56:19;;;;;;;4.03;1.58;;;11.70;49.30;;;;;;20414;6872;341815;-76
2023/03/13 02:58:46;;;;;;;3.17;1.37;;;12.00;49.70;;;;;;20408;6872;282310;-77
2023/03/13 03:01:11;;;;;;;3.20;1.42;;;12.00;49.60;;;;;;20429;6872;309742;-76
2023/03/13 03:03:38;;;;;;;2.67;1.52;;;12.30;49.30;;;;;;20419;6872;315953;-76
2023/03/13 03:06:04;;;;;;;2.03;1.10;;;12.40;49.00;;;;;;20429;6872;309447;-76
2023/03/13 03:08:29;;;;;;;3.63;1.40;;;12.60;48.80;;;;;;20423;6872;311555;-76
2023/03/13 03:10:55;;;;;;;4.07;1.23;;;12.70;48.70;;;;;;20640;6872;117468;-77
2023/03/13 03:13:21;;;;;;;1.87;1.23;;;12.20;49.10;;;;;;20639;6872;117876;-76
2023/03/13 03:15:47;;;;;;;2.70;1.10;;;12.10;49.00;;;;;;20609;6872;118220;-76
2023/03/13 03:18:12;;;;;;;3.50;1.20;;;11.90;49.50;;;;;;20426;6872;338824;-77
2023/03/13 03:20:38;;;;;;;1.63;0.90;;;11.90;50.20;;;;;;20638;6872;118571;-77
2023/03/13 03:23:03;;;;;;;1.03;0.90;;;11.90;50.00;;;;;;20636;6872;117592;-76
2023/03/13 03:25:29;;;;;;;2.07;1.17;;;11.80;50.30;;;;;;20406;6870;313725;-77
2023/03/13 03:27:54;;;;;;;1.73;0.97;;;11.90;50.80;;;;;;20638;6871;117851;-77
2023/03/13 03:30:20;;;;;;;2.13;0.90;;;11.90;50.50;;;;;;20639;6871;117486;-77
2023/03/13 03:32:47;;;;;;;1.67;1.10;;;11.70;50.50;;;;;;20421;6871;310560;-76
2023/03/13 03:35:13;;;;;;;1.07;0.93;;;11.90;50.80;;;;;;20639;6871;117932;-77
2023/03/13 03:37:39;;;;;;;1.63;1.00;;;11.90;50.80;;;;;;20621;6872;123492;-77
2023/03/13 03:40:06;;;;;;;2.95;1.30;;;11.80;50.70;;;;;;20403;6872;314684;-77
2023/03/13 03:42:31;;;;;;;1.30;0.90;;;11.90;51.20;;;;;;20424;6872;337318;-76
2023/03/13 03:44:58;;;;;;;3.27;1.20;;;12.20;50.80;;;;;;20642;6872;117873;-76
2023/03/13 03:47:24;;;;;;;2.67;1.10;;;12.30;50.50;;;;;;20641;6872;117927;-77
2023/03/13 03:49:51;;;;;;;1.70;0.90;;;12.00;50.50;;;;;;20618;6872;118063;-76
2023/03/13 03:52:16;;;;;;;2.58;1.20;;;11.80;50.60;;;;;;20429;6872;279308;-77
2023/03/13 03:54:43;;;;;;;1.52;1.15;;;12.00;51.10;;;;;;20424;6872;308799;-77
2023/03/13 03:57:09;;;;;;;1.23;1.00;;;12.30;50.60;;;;;;20639;6872;118121;-77
2023/03/13 03:59:35;;;;;;;1.87;1.17;;;12.30;50.20;;;;;;20402;6872;338390;-79
2023/03/13 04:02:01;;;;;;;1.93;1.17;;;12.40;50.20;;;;;;20425;6872;310071;-76
2023/03/13 04:04:26;;;;;;;0.93;0.60;;;12.60;49.80;;;;;;20642;6872;117760;-77
2023/03/13 04:06:53;;;;;;;1.67;0.90;;;12.30;49.90;;;;;;20636;6872;117741;-78
2023/03/13 04:09:18;;;;;;;1.95;1.10;;;12.30;49.90;;;;;;20424;6872;337653;-77
2023/03/13 04:11:44;;;;;;;2.05;1.10;;;12.40;50.30;;;;;;20402;6872;282404;-76
2023/03/13 04:14:09;;;;;;;1.40;1.10;;;12.60;50.00;;;;;;20432;6872;283815;-78
2023/03/13 04:16:35;;;;;;;1.73;1.03;;;12.90;49.70;;;;;;20636;6872;117856;-77
2023/03/13 04:19:01;;;;;;;1.40;0.80;;;12.50;49.80;;;;;;20643;6872;120576;-77
2023/03/13 04:21:27;;;;;;;1.93;1.00;;;12.50;49.80;;;;;;20408;6872;297703;-78
2023/03/13 04:23:52;;;;;;;1.35;1.10;;;12.50;50.10;;;;;;20432;6872;280011;-77
2023/03/13 04:26:18;;;;;;;0.80;0.80;;;12.70;49.70;;;;;;20641;6872;117750;-78
2023/03/13 04:28:43;;;;;;;1.53;0.90;;;12.70;49.50;;;;;;20636;6872;117565;-76
2023/03/13 04:31:09;;;;;;;2.07;1.27;;;12.40;49.70;;;;;;20429;6872;297842;-76
2023/03/13 04:33:35;;;;;;;1.63;0.80;;;12.50;50.10;;;;;;20626;6872;118404;-76
2023/03/13 04:36:00;;;;;;;0.90;0.90;;;12.50;50.00;;;;;;20651;6872;117892;-76
2023/03/13 04:38:26;;;;;;;1.37;1.03;;;12.30;50.20;;;;;;20441;6870;280013;-76
2023/03/13 04:40:51;;;;;;;2.67;0.90;;;12.40;50.80;;;;;;20440;6871;279518;-76
2023/03/13 04:43:17;;;;;;;1.63;1.00;;;12.90;50.20;;;;;;20425;6871;314875;-77
2023/03/13 04:45:45;;;;;;;1.00;0.90;;;12.90;50.20;;;;;;20411;6871;280487;-77
2023/03/13 04:48:11;;;;;;;1.87;1.00;;;13.10;49.90;;;;;;20422;6872;338042;-76
2023/03/13 04:50:38;;;;;;;0.87;0.73;;;13.30;49.50;;;;;;20642;6872;117390;-76
2023/03/13 04:53:04;;;;;;;1.37;0.70;;;13.20;49.10;;;;;;20624;6872;117695;-76
2023/03/13 04:55:29;;;;;;;1.27;1.00;;;12.90;50.20;;;;;;20409;6872;285107;-76
2023/03/13 04:57:55;;;;;;;1.30;0.80;;;12.90;50.40;;;;;;20640;6872;120730;-76
2023/03/13 05:00:21;;;;;;;1.20;1.03;;;12.60;50.80;;;;;;20641;6872;123712;-79
2023/03/13 05:02:47;;;;;;;1.27;0.87;;;12.60;50.60;;;;;;20432;6872;309614;-76
2023/03/13 05:05:12;;;;;;;1.58;1.10;;;12.60;51.10;;;;;;20434;6872;285119;-76
2023/03/13 05:07:38;;;;;;;1.50;0.97;;;12.90;50.90;;;;;;20407;6872;314177;-76
2023/03/13 05:10:04;;;;;;;1.83;0.90;;;13.20;50.60;;;;;;20636;6872;118094;-76
2023/03/13 05:12:29;;;;;;;2.00;0.90;;;13.00;50.10;;;;;;20642;6872;117456;-76
2023/03/13 05:14:55;;;;;;;2.20;0.90;;;12.80;50.40;;;;;;20430;6872;284329;-76
2023/03/13 05:17:21;;;;;;;1.10;0.93;;;13.00;50.70;;;;;;20425;6872;280054;-76
2023/03/13 05:19:47;;;;;;;0.70;0.70;;;13.00;50.60;;;;;;20610;6872;118263;-76
2023/03/13 05:22:12;;;;;;;2.30;1.20;;;13.00;50.50;;;;;;20454;6872;312426;-80
2023/03/13 05:24:38;;;;;;;1.17;1.07;;;13.00;50.60;;;;;;20650;6872;118926;-78
2023/03/13 05:27:03;;;;;;;2.07;1.00;;;12.90;50.40;;;;;;20647;6872;117637;-80
2023/03/13 05:29:29;;;;;;;1.27;1.03;;;12.70;50.60;;;;;;20414;6872;310250;-78
2023/03/13 05:31:54;;;;;;;1.33;0.67;;;12.70;51.00;;;;;;20649;6872;117812;-77
2023/03/13 05:34:20;;;;;;;1.00;0.93;;;12.70;50.80;;;;;;20648;6872;117381;-77
2023/03/13 05:36:45;;;;;;;3.97;1.13;;;12.50;50.90;;;;;;20643;6872;118528;-77
2023/03/13 05:39:11;;;;;;;1.73;1.10;;;12.40;51.20;;;;;;20372;6889;339555;-77
2023/03/13 05:41:37;;;;;;;1.33;1.02;;;12.50;51.90;;;;;;20412;6872;279631;-78
2023/03/13 05:44:02;;;;;;;1.63;0.90;;;12.90;51.60;;;;;;20638;6872;117569;-81
2023/03/13 05:46:28;;;;;;;1.30;0.93;;;12.90;51.10;;;;;;20428;6872;309524;-81
2023/03/13 05:48:55;;;;;;;1.30;1.00;;;12.90;51.10;;;;;;20431;6870;279699;-76
2023/03/13 05:51:20;;;;;;;1.67;1.00;;;13.10;50.80;;;;;;20430;6871;295168;-75
2023/03/13 05:53:46;;;;;;;1.00;0.77;;;13.40;50.40;;;;;;20619;6871;117684;-75
2023/03/13 05:56:11;;;;;;;2.87;1.12;;;13.30;50.10;;;;;;20429;6871;337254;-74
2023/03/13 05:58:37;;;;;;;0.97;0.80;;;13.20;50.40;;;;;;20646;6871;118050;-74
2023/03/13 06:01:11;;;;;;;2.30;1.00;;;12.90;50.60;;;;;;20646;6872;117178;-76
2023/03/13 06:03:37;;;;;;;1.25;0.80;;;12.90;50.60;;;;;;20413;6872;308926;-77
2023/03/13 06:06:02;;;;;;;1.27;0.82;;;13.00;51.00;;;;;;20416;6872;291139;-77
2023/03/13 06:08:31;;;;;;;1.70;1.07;;;13.50;50.30;;;;;;20434;6872;308910;-80
2023/03/13 06:10:56;;;;;;;1.80;0.70;;;13.50;50.30;;;;;;20433;6872;285447;-80
2023/03/13 06:13:21;;;;;;;1.00;0.90;;;13.70;50.10;;;;;;20426;6872;308540;-75
2023/03/13 06:15:50;;;;;;;1.07;0.77;;;13.80;49.90;;;;;;20405;6872;283533;-81
2023/03/13 06:18:15;;;;;;;1.90;0.87;;;13.90;49.50;;;;;;20422;6872;279404;-77
2023/03/13 06:20:41;;;;;;;0.93;0.90;;;14.00;49.60;;;;;;20414;6872;284394;-77
2023/03/13 06:23:07;;;;;;;0.62;0.60;;;14.10;49.50;;;;;;20407;6872;338994;-80
2023/03/13 06:25:32;;;;;;;1.37;0.80;;;14.20;49.60;;;;;;20623;6872;121706;-78
2023/03/13 06:27:58;;;;;;;1.40;0.60;;;14.00;49.60;;;;;;20422;6872;283536;-76
2023/03/13 06:30:25;;;;;;;1.10;0.60;;;13.90;50.40;;;;;;20594;6889;123825;-77
2023/03/13 06:32:50;;;;;;;1.15;0.60;;;13.80;50.30;;;;;;20433;6872;294432;-76
2023/03/13 06:35:16;;;;;;;0.53;0.53;;;13.80;51.00;;;;;;20635;6872;117934;-77
2023/03/13 06:37:41;;;;;;;0.55;0.52;;;13.70;50.70;;;;;;20413;6872;338105;-77
2023/03/13 06:40:07;;;;;;;0.73;0.65;;;13.70;51.40;;;;;;20424;6872;308905;-77
2023/03/13 06:42:33;;;;;;;0.70;0.50;;;13.90;51.30;;;;;;20627;6872;117669;-77
2023/03/13 06:45:02;;;;;;;0.68;0.50;;;13.80;50.60;;;;;;20634;6872;117608;-77
2023/03/13 06:47:26;;;;;;;0.40;0.40;;;13.40;51.40;;;;;;20626;6872;117652;-78
2023/03/13 06:49:53;;;;;;;0.65;0.60;;;13.50;52.00;;;;;;20256;6872;308749;-77
2023/03/13 06:52:18;;;;;;;0.43;0.43;;;13.50;52.00;;;;;;20641;6872;117857;-76
2023/03/13 06:54:45;;;;;;;0.70;0.70;;;13.70;52.40;;;;;;20429;6872;338648;-77
2023/03/13 06:57:11;;;;;;;2.62;0.70;;;13.90;52.10;;;;;;20424;6872;312216;-77
2023/03/13 06:59:38;;;;;;;0.87;0.40;;;14.00;52.20;;;;;;20627;6872;118207;-80
2023/03/13 07:02:02;;;;;;;0.60;0.60;;;13.90;51.40;;;;;;20426;6870;308722;-78
2023/03/13 07:04:29;;;;;;;1.00;0.68;;;14.00;52.10;;;;;;20435;6871;338771;-76
2023/03/13 07:06:55;;;;;;;0.53;0.43;;;14.20;51.70;;;;;;20647;6871;116553;-76
2023/03/13 07:09:20;;;;;;;2.28;0.60;;;14.20;51.20;;;;;;20644;6871;118658;-76
2023/03/13 07:11:46;;;;;;;1.57;0.60;;;14.00;51.50;;;;;;20418;6872;309053;-76
2023/03/13 07:14:11;;;;;;;1.70;0.70;;;14.00;52.20;;;;;;20647;6872;117954;-78
2023/03/13 07:16:39;;;;;;;0.60;0.60;;;14.10;52.50;;;;;;20445;6872;330810;-76
2023/03/13 07:19:05;;;;;;;0.57;0.53;;;14.10;52.50;;;;;;20626;6872;121971;-77
2023/03/13 07:21:30;;;;;;;0.57;0.57;;;14.00;51.80;;;;;;20422;6872;282070;-77
2023/03/13 07:23:57;;;;;;;0.80;0.63;;;14.40;52.00;;;;;;20123;6872;311323;-77
2023/03/13 07:26:24;;;;;;;0.47;0.40;;;14.30;52.00;;;;;;20645;6872;117613;-77
2023/03/13 07:28:49;;;;;;;0.67;0.60;;;14.30;51.60;;;;;;20430;6872;311747;-73
2023/03/13 07:31:18;;;;;;;1.87;0.70;;;14.30;52.20;;;;;;20643;6872;117936;-77
2023/03/13 07:33:43;;;;;;;0.53;0.50;;;14.30;51.70;;;;;;20610;6872;117734;-77
2023/03/13 07:36:11;;;;;;;0.67;0.67;;;14.10;52.70;;;;;;20424;6872;308746;-77
2023/03/13 07:38:36;;;;;;;0.60;0.60;;;14.20;52.80;;;;;;20642;6872;120208;-77
2023/03/13 07:41:02;;;;;;;1.73;1.10;;;14.10;52.20;;;;;;20641;6872;117639;-77
2023/03/13 07:43:30;;;;;;;1.07;1.03;;;14.00;52.30;;;;;;20618;6872;117623;-75
2023/03/13 07:45:56;;;;;;;0.70;0.70;;;13.80;52.50;;;;;;20409;6872;309638;-76
2023/03/13 07:48:22;;;;;;;1.63;1.53;;;14.10;53.80;;;;;;20635;6872;117554;-76
2023/03/13 07:50:48;;;;;;;1.05;1.05;;;14.30;53.60;;;;;;20423;6872;312621;-76
2023/03/13 07:53:19;;;;;;;1.02;1.00;;;14.30;53.60;;;;;;20428;6872;325706;-76
2023/03/13 07:55:40;;;;;;;2.03;1.92;;;14.70;52.80;;;;;;20609;6872;118259;-77
2023/03/13 07:58:06;;;;;;;1.23;1.10;;;14.70;52.80;;;;;;20645;6872;117806;-74
2023/03/13 08:00:32;;;;;;;0.63;0.63;;;14.40;53.40;;;;;;20642;6872;122078;-76
2023/03/13 08:02:58;;;;;;;0.50;0.50;;;14.40;53.10;;;;;;20436;6872;304896;-74
2023/03/13 08:05:23;;;;;;;0.73;0.73;;;14.60;53.30;;;;;;20441;6872;279701;-77
2023/03/13 08:07:49;;;;;;;0.87;0.87;;;14.90;52.90;;;;;;20661;6872;117040;-76
2023/03/13 08:10:14;;;;;;;2.40;2.30;;;15.00;52.50;;;;;;20428;6872;313424;-77
2023/03/13 08:12:40;;;;;;;2.13;2.03;;;15.10;52.50;;;;;;20647;6870;117394;-76
2023/03/13 08:15:06;;;;;;;1.85;1.75;;;15.10;51.90;;;;;;20652;6871;117875;-74
2023/03/13 08:17:31;;;;;;;1.10;1.00;;;14.90;51.90;;;;;;20623;6871;117647;-74
2023/03/13 08:19:57;;;;;;;0.87;0.77;;;14.80;52.20;;;;;;20660;6871;117835;-73
2023/03/13 08:22:23;;;;;;;0.93;0.80;;;14.60;52.10;;;;;;20654;6871;121588;-73
2023/03/13 08:25:31;;;;;;;0.93;0.80;;;14.50;52.50;;;;;;20434;6872;309522;-75
2023/03/13 08:27:57;;;;;;;0.98;0.88;;;14.70;53.40;;;;;;20407;6872;308965;-74
2023/03/13 08:30:22;;;;;;;0.80;0.80;;;15.20;53.10;;;;;;20428;6872;339242;-74
2023/03/13 08:32:49;;;;;;;1.13;1.13;;;15.50;51.60;;;;;;20638;6872;119756;-74
2023/03/13 08:35:14;;;;;;;0.73;0.67;;;15.60;51.60;;;;;;20638;6872;117638;-73
2023/03/13 08:37:40;;;;;;;0.60;0.60;;;15.40;51.70;;;;;;20626;6872;148652;-74
2023/03/13 08:40:10;;;;;;;0.80;0.63;;;15.20;51.80;;;;;;20643;6872;117717;-74
2023/03/13 08:42:31;;;;;;;0.73;0.70;;;15.10;52.00;;;;;;20427;6872;293358;-75
2023/03/13 08:44:57;;;;;;;0.77;0.60;;;15.20;52.80;;;;;;20430;6872;286448;-74
2023/03/13 08:47:23;;;;;;;0.77;0.70;;;15.50;52.50;;;;;;20428;6872;286200;-74
2023/03/13 08:49:49;;;;;;;0.93;0.60;;;15.90;51.40;;;;;;20621;6872;122672;-73
2023/03/13 08:52:15;;;;;;;1.08;0.60;;;16.00;51.90;;;;;;20428;6872;308890;-74
2023/03/13 08:54:41;;;;;;;1.40;0.87;;;16.00;51.80;;;;;;20426;6872;309462;-73
2023/03/13 08:57:06;;;;;;;1.40;1.30;;;16.20;51.80;;;;;;20412;6872;309593;-74
2023/03/13 08:59:32;;;;;;;1.40;1.27;;;16.40;51.50;;;;;;20406;6872;309606;-73
2023/03/13 09:01:58;;;;;;;1.17;1.17;;;16.60;51.10;;;;;;20629;6872;117700;-73
2023/03/13 09:04:24;;;;;;;0.90;0.90;;;16.50;50.80;;;;;;20424;6872;310489;-75
2023/03/13 09:06:49;;;;;;;1.20;1.20;;;16.50;50.80;;;;;;20626;6872;117570;-73
2023/03/13 09:09:16;;;;;;;1.30;1.30;;;16.30;50.30;;;;;;20430;6872;284304;-73
2023/03/13 09:11:42;;;;;;;2.07;1.97;;;16.30;50.70;;;;;;20352;6889;309752;-73
2023/03/13 09:14:07;;;;;;;1.58;1.48;;;16.60;50.80;;;;;;20412;6872;280912;-73
2023/03/13 09:16:33;;;;;;;2.70;1.37;;;16.70;50.20;;;;;;20633;6872;117909;-74
2023/03/13 09:18:59;;;;;;;0.85;0.70;;;16.60;49.70;;;;;;20428;6872;279776;-74
2023/03/13 09:21:24;;;;;;;0.90;0.77;;;16.60;50.20;;;;;;20429;6872;284227;-79
2023/03/13 09:23:50;;;;;;;0.80;0.80;;;16.70;50.00;;;;;;20377;6870;308298;-78
2023/03/13 09:26:16;;;;;;;0.90;0.80;;;16.90;50.00;;;;;;20648;6871;118596;-77
2023/03/13 09:28:42;;;;;;;0.70;0.70;;;16.80;50.00;;;;;;20657;6871;123459;-80
2023/03/13 09:31:14;;;;;;;1.08;0.90;;;16.60;50.20;;;;;;20418;6871;308614;-77
2023/03/13 09:33:41;;;;;;;0.70;0.70;;;16.70;50.30;;;;;;20409;6871;308638;-77
2023/03/13 09:36:07;;;;;;;1.00;0.90;;;17.50;50.20;;;;;;20428;6872;279571;-77
2023/03/13 09:38:32;;;;;;;0.73;0.73;;;17.50;50.10;;;;;;20423;6872;313635;-80
2023/03/13 09:41:03;;;;;;;0.77;0.77;;;18.20;48.60;;;;;;20393;6872;279401;-76
2023/03/13 09:43:49;;;;;;;1.20;0.90;;;18.20;47.90;;;;;;20214;6872;338743;-77
2023/03/13 09:46:14;;;;;;;2.00;0.83;;;18.50;47.90;;;;;;20629;6872;118277;-76
2023/03/13 09:48:43;;;;;;;0.80;0.80;;;18.50;47.50;;;;;;20340;6872;308932;-76
2023/03/13 09:51:18;;;;;;;1.60;1.00;;;18.50;46.80;;;;;;20342;6870;278931;-76
2023/03/13 09:54:03;;;;;;;2.00;0.83;;;18.60;46.60;;;;;;20415;6872;280244;-75
2023/03/13 09:56:29;;;;;;;0.87;0.87;;;18.80;46.40;;;;;;19357;7238;292863;-76
2023/03/13 09:58:54;;;;;;;2.10;0.87;;;19.00;45.70;;;;;;19888;6872;308842;-76
2023/03/13 10:01:25;;;;;;;1.10;1.00;;;19.00;45.50;;;;;;20435;6872;308984;-83
2023/03/13 10:03:57;;;;;;;1.00;0.90;;;19.00;45.50;;;;;;20617;6872;118210;-77
2023/03/13 10:06:24;;;;;;;1.10;1.00;;;18.60;45.60;;;;;;20410;6872;338598;-74
2023/03/13 10:08:51;;;;;;;1.30;1.20;;;18.60;45.60;;;;;;20633;6872;117749;-74
2023/03/13 10:11:24;;;;;;;1.40;1.30;;;18.50;45.60;;;;;;20630;6872;117598;-74
2023/03/13 10:14:21;;;;;;;1.37;1.30;;;18.30;45.60;;;;;;20379;6880;283737;-76
2023/03/13 10:17:07;;;;;;;1.23;1.10;;;18.50;46.00;;;;;;20399;6872;327814;-74
2023/03/13 10:19:33;;;;;;;2.50;1.10;;;19.00;45.30;;;;;;20391;6872;280423;-75
2023/03/13 10:22:00;;;;;;;1.00;0.90;;;19.50;42.90;;;;;;20639;6872;118166;-77
2023/03/13 10:24:26;;;;;;;3.10;1.10;;;19.50;43.10;;;;;;20423;6872;338578;-75
2023/03/13 10:26:51;;;;;;;1.20;1.10;;;19.50;43.00;;;;;;20627;6872;118409;-76
2023/03/13 10:29:23;;;;;;;1.30;1.20;;;19.60;43.70;;;;;;20421;6872;313731;-77
2023/03/13 10:32:02;;;;;;;1.27;1.20;;;19.60;43.40;;;;;;20610;6872;120398;-76
2023/03/13 10:34:47;;;;;;;0.90;0.90;;;19.70;42.80;;;;;;20623;6870;118126;-77
2023/03/13 10:37:13;;;;;;;1.70;1.60;;;19.50;43.30;;;;;;20642;6871;117499;-76
2023/03/13 10:39:39;;;;;;;1.13;0.90;;;19.40;44.40;;;;;;20589;6871;145754;-78
2023/03/13 10:42:11;;;;;;;1.27;1.10;;;19.40;44.00;;;;;;20433;6871;279258;-76
2023/03/13 10:44:39;;;;;;;0.90;0.90;;;19.80;42.30;;;;;;20633;6871;118280;-82
2023/03/13 10:47:05;;;;;;;2.67;1.30;;;19.80;42.30;;;;;;20429;6872;282937;-76
2023/03/13 10:49:30;;;;;;;1.37;1.17;;;19.90;41.40;;;;;;20612;6872;118204;-77
2023/03/13 10:51:57;;;;;;;1.33;1.23;;;19.80;42.10;;;;;;20421;6872;280392;-73
2023/03/13 10:54:25;;;;;;;3.03;1.13;;;19.80;42.10;;;;;;20605;6872;117005;-75
2023/03/13 10:56:51;;;;;;;1.53;1.43;;;19.90;41.80;;;;;;20631;6872;117453;-75
2023/03/13 10:59:16;;;;;;;1.03;1.03;;;19.70;41.50;;;;;;20420;6872;340159;-75
2023/03/13 11:01:43;;;;;;;1.58;1.30;;;19.80;42.20;;;;;;20392;6872;309788;-75
2023/03/13 11:04:36;;;;;;;1.53;1.10;;;20.10;41.90;;;;;;20631;6872;118275;-75
2023/03/13 11:07:00;;;;;;;1.23;1.12;;;20.10;42.30;;;;;;20421;6872;308819;-75
2023/03/13 11:09:26;;;;;;;1.27;1.17;;;20.10;42.30;;;;;;20415;6872;309262;-74
2023/03/13 11:11:54;;;;;;;1.17;1.07;;;20.60;41.80;;;;;;20411;6872;310441;-73
2023/03/13 11:14:23;;;;;;;1.30;1.20;;;20.60;41.80;;;;;;20403;6872;308753;-73
2023/03/13 11:16:49;;;;;;;1.73;1.20;;;20.90;41.30;;;;;;20421;6872;280452;-75
2023/03/13 11:19:31;;;;;;;0.93;0.90;;;21.10;40.80;;;;;;20623;6872;118099;-71
2023/03/13 11:21:56;;;;;;;1.97;1.00;;;21.00;41.00;;;;;;20620;6872;118341;-72
2023/03/13 11:24:42;;;;;;;1.10;1.02;;;20.70;41.60;;;;;;20630;6872;120220;-73
2023/03/13 11:27:25;;;;;;;1.10;0.97;;;20.80;42.70;;;;;;20628;6872;116569;-73
2023/03/13 11:30:07;;;;;;;1.77;0.93;;;20.80;42.70;;;;;;20544;6889;118143;-73
2023/03/13 11:32:55;;;;;;;1.20;0.90;;;21.00;42.30;;;;;;20409;6872;308779;-73
2023/03/13 11:35:32;;;;;;;1.23;0.87;;;21.90;40.40;;;;;;20387;6872;280146;-74
2023/03/13 11:37:57;;;;;;;2.60;1.10;;;21.80;40.30;;;;;;20398;6872;309170;-75
2023/03/13 11:40:36;;;;;;;2.50;1.13;;;22.20;40.10;;;;;;20626;6872;117437;-75
2023/03/13 11:43:18;;;;;;;1.08;0.90;;;22.30;40.10;;;;;;20349;6872;279980;-75
2023/03/13 11:45:44;;;;;;;1.98;1.20;;;22.40;39.20;;;;;;20404;6872;279417;-75
2023/03/13 11:48:36;;;;;;;2.47;1.07;;;22.60;38.60;;;;;;20397;6870;310030;-75
2023/03/13 11:51:06;;;;;;;1.63;1.20;;;22.70;38.50;;;;;;20613;6871;117904;-73
2023/03/13 11:54:01;;;;;;;1.20;1.10;;;22.30;39.10;;;;;;19703;6871;280388;-75
2023/03/13 11:56:26;;;;;;;1.17;1.00;;;22.30;39.10;;;;;;20635;6871;117863;-74
2023/03/13 11:59:01;;;;;;;1.23;1.00;;;22.20;39.00;;;;;;20413;6872;338136;-74
2023/03/13 12:01:42;;;;;;;2.40;1.10;;;22.30;39.30;;;;;;20409;6872;298883;-73
2023/03/13 12:04:10;;;;;;;2.83;1.17;;;22.30;39.30;;;;;;20408;6872;288067;-74
2023/03/13 12:06:42;;;;;;;2.50;1.15;;;22.50;39.30;;;;;;20415;6872;329168;-75
2023/03/13 12:09:18;;;;;;;1.20;1.00;;;22.70;38.80;;;;;;20403;6872;287295;-74
2023/03/13 12:11:44;;;;;;;1.13;1.03;;;22.80;38.70;;;;;;20405;6872;287096;-74
2023/03/13 12:14:12;;;;;;;2.58;1.65;;;22.90;38.50;;;;;;20392;6872;279575;-74
2023/03/13 12:16:38;;;;;;;2.50;1.13;;;23.00;37.90;;;;;;20075;6870;310524;-74
2023/03/13 12:19:04;;;;;;;2.17;1.33;;;23.20;38.00;;;;;;20412;6872;291525;-74
2023/03/13 12:21:51;;;;;;;1.40;1.10;;;23.20;38.10;;;;;;20395;6872;292041;-74
2023/03/13 12:24:29;;;;;;;2.13;1.10;;;23.20;37.60;;;;;;20616;6872;120093;-73
2023/03/13 12:27:01;;;;;;;2.10;1.10;;;23.00;38.20;;;;;;20412;6872;279438;-73
2023/03/13 12:29:37;;;;;;;2.63;1.20;;;22.90;38.60;;;;;;20581;6872;117744;-73
2023/03/13 12:32:22;;;;;;;2.33;1.23;;;22.80;38.50;;;;;;20632;6872;119009;-72
2023/03/13 12:34:55;;;;;;;1.30;1.20;;;22.50;38.70;;;;;;20639;6872;117950;-75
2023/03/13 12:37:37;;;;;;;1.77;1.30;;;22.30;38.70;;;;;;20208;6872;309742;-75
2023/03/13 12:40:10;;;;;;;1.30;1.20;;;22.30;37.90;;;;;;20613;6872;117760;-75